createdAt,value
2023-06-20T00:01:45.405Z,100834.56
2023-06-20T00:04:12.390Z,100831.97
2023-06-20T00:06:39.329Z,100826.09
2023-06-20T00:09:06.264Z,100835.53
2023-06-20T00:11:33.214Z,100834.03
2023-06-20T00:14:00.185Z,100835.41
2023-06-20T00:16:27.159Z,100806.59
2023-06-20T00:18:58.129Z,100827.22
2023-06-20T00:21:27.081Z,100837.41
2023-06-20T00:23:55.512Z,100800.44
2023-06-20T00:26:23.007Z,100830.88
2023-06-20T00:28:53.429Z,100827.16
2023-06-20T00:31:20.432Z,100824.59
2023-06-20T00:33:49.310Z,100817.13
2023-06-20T00:36:16.436Z,100829.59
2023-06-20T00:38:49.793Z,100833.41
2023-06-20T00:41:17.978Z,100831.84
2023-06-20T00:43:46.371Z,100826.91
2023-06-20T00:46:19.164Z,100838.97
2023-06-20T00:48:48.032Z,100834.84
2023-06-20T00:51:16.807Z,100830.06
2023-06-20T00:53:44.972Z,100822.03
2023-06-20T00:56:12.279Z,100816.25
2023-06-20T00:58:39.436Z,100825.31
2023-06-20T01:01:07.303Z,100782.78
2023-06-20T01:03:38.644Z,100812.97
2023-06-20T01:06:10.667Z,100815.56
2023-06-20T01:09:04.057Z,100797.28
2023-06-20T01:12:01.704Z,100795.41
2023-06-20T01:14:50.587Z,100814.72
2023-06-20T01:17:39.785Z,100828.59
2023-06-20T01:20:23.780Z,100821.44
2023-06-20T01:23:08.354Z,100815.19
2023-06-20T01:26:18.306Z,100832.47
2023-06-20T01:28:51.660Z,100795.09
2023-06-20T01:31:29.599Z,100827.00
2023-06-20T01:34:18.064Z,100832.28
2023-06-20T01:36:53.283Z,100831.44
2023-06-20T01:39:27.213Z,100824.06
2023-06-20T01:41:58.870Z,100824.91
2023-06-20T01:44:28.680Z,100821.53
2023-06-20T01:46:57.881Z,100826.81
2023-06-20T01:49:27.573Z,100825.97
2023-06-20T01:51:57.187Z,100827.50
2023-06-20T01:54:30.925Z,100818.41
2023-06-20T01:56:58.758Z,100828.69
2023-06-20T01:59:28.598Z,100827.16
2023-06-20T02:01:58.048Z,100817.09
2023-06-20T02:04:26.489Z,100821.03
2023-06-20T02:06:54.426Z,100827.50
2023-06-20T02:09:21.766Z,100824.94
2023-06-20T02:11:49.600Z,100820.50
2023-06-20T02:14:17.141Z,100816.41
2023-06-20T02:16:46.040Z,100814.03
2023-06-20T02:19:13.100Z,100812.16
2023-06-20T02:21:43.340Z,100800.56
2023-06-20T02:24:13.484Z,100813.88
2023-06-20T02:26:43.826Z,100813.38
2023-06-20T02:29:12.560Z,100813.72
2023-06-20T02:31:47.755Z,100812.19
2023-06-20T02:34:20.199Z,100805.03
2023-06-20T02:36:49.109Z,100805.34
2023-06-20T02:39:16.170Z,100809.09
2023-06-20T02:41:43.970Z,100776.16
2023-06-20T02:44:10.912Z,100793.38
2023-06-20T02:46:52.788Z,100793.72
2023-06-20T02:49:42.206Z,100785.00
2023-06-20T02:52:45.029Z,100780.25
2023-06-20T02:55:39.771Z,100784.72
2023-06-20T02:58:13.811Z,100778.91
2023-06-20T03:00:45.957Z,100780.97
2023-06-20T03:03:20.750Z,100782.81
2023-06-20T03:05:49.641Z,100782.31
2023-06-20T03:08:22.246Z,100780.47
2023-06-20T03:10:50.432Z,100777.53
2023-06-20T03:13:17.544Z,100786.06
2023-06-20T03:15:50.946Z,100793.41
2023-06-20T03:18:19.804Z,100798.38
2023-06-20T03:20:49.544Z,100800.59
2023-06-20T03:23:17.783Z,100808.28
2023-06-20T03:25:46.170Z,100812.03
2023-06-20T03:28:13.826Z,100800.25
2023-06-20T03:30:43.905Z,100800.06
2023-06-20T03:33:11.532Z,100797.53
2023-06-20T03:35:38.966Z,100773.28
2023-06-20T03:38:06.223Z,100770.56
2023-06-20T03:40:33.841Z,100783.00
2023-06-20T03:43:00.821Z,100775.84
2023-06-20T03:45:28.381Z,100774.50
2023-06-20T03:47:56.528Z,100778.56
2023-06-20T03:50:23.586Z,100779.06
2023-06-20T03:52:51.223Z,100785.41
2023-06-20T03:55:18.209Z,100781.16
2023-06-20T03:57:45.214Z,100788.66
2023-06-20T04:00:13.673Z,100794.44
2023-06-20T04:02:45.219Z,100780.94
2023-06-20T04:05:13.240Z,100777.34
2023-06-20T04:07:44.154Z,100769.50
2023-06-20T04:10:13.543Z,100769.25
2023-06-20T04:12:41.904Z,100766.59
2023-06-20T04:15:10.081Z,100746.88
2023-06-20T04:17:38.666Z,100770.66
2023-06-20T04:20:13.251Z,100742.66
2023-06-20T04:22:51.202Z,100774.31
2023-06-20T04:25:18.592Z,100766.00
2023-06-20T04:27:54.784Z,100785.50
2023-06-20T04:30:24.012Z,100778.19
2023-06-20T04:32:54.488Z,100778.44
2023-06-20T04:35:21.923Z,100789.66
2023-06-20T04:37:52.909Z,100788.19
2023-06-20T04:40:23.802Z,100793.91
2023-06-20T04:42:50.985Z,100804.75
2023-06-20T04:45:17.999Z,100801.25
2023-06-20T04:47:45.108Z,100805.75
2023-06-20T04:50:12.335Z,100811.72
2023-06-20T04:52:39.356Z,100813.75
2023-06-20T04:55:06.540Z,100815.56
2023-06-20T04:57:34.782Z,100817.41
2023-06-20T05:00:01.905Z,100804.16
2023-06-20T05:02:28.979Z,100804.41
2023-06-20T05:04:56.190Z,100819.81
2023-06-20T05:07:23.632Z,100828.03
2023-06-20T05:09:53.346Z,100835.00
2023-06-20T05:12:20.449Z,100838.50
2023-06-20T05:14:47.551Z,100843.47
2023-06-20T05:17:14.558Z,100842.50
2023-06-20T05:19:41.629Z,100826.63
2023-06-20T05:22:08.652Z,100830.50
2023-06-20T05:24:35.600Z,100842.44
2023-06-20T05:27:02.650Z,100872.09
2023-06-20T05:29:29.636Z,100878.19
2023-06-20T05:31:56.715Z,100882.00
2023-06-20T05:34:23.761Z,100898.78
2023-06-20T05:36:50.687Z,100892.28
2023-06-20T05:39:17.700Z,100876.63
2023-06-20T05:41:44.716Z,100870.16
2023-06-20T05:44:11.828Z,100882.44
2023-06-20T05:46:38.918Z,100872.22
2023-06-20T05:49:10.946Z,100866.28
2023-06-20T05:51:38.404Z,100879.59
2023-06-20T05:54:05.417Z,100880.81
2023-06-20T05:56:32.332Z,100869.06
2023-06-20T05:58:59.335Z,100846.31
2023-06-20T06:01:26.407Z,100861.16
2023-06-20T06:03:53.596Z,100831.31
2023-06-20T06:06:20.712Z,100835.38
2023-06-20T06:08:47.678Z,100840.50
2023-06-20T06:11:14.852Z,100799.69
2023-06-20T06:13:41.863Z,100793.88
2023-06-20T06:16:09.006Z,100825.06
2023-06-20T06:18:36.074Z,100798.44
2023-06-20T06:21:03.094Z,100816.81
2023-06-20T06:23:30.212Z,100818.19
2023-06-20T06:25:57.195Z,100819.34
2023-06-20T06:28:25.151Z,100809.50
2023-06-20T06:30:52.330Z,100823.81
2023-06-20T06:33:21.154Z,100796.66
2023-06-20T06:35:49.176Z,100801.31
2023-06-20T06:38:16.235Z,100800.13
2023-06-20T06:40:45.124Z,100791.91
2023-06-20T06:43:12.256Z,100812.84
2023-06-20T06:45:39.687Z,100791.88
2023-06-20T06:48:06.791Z,100815.06
2023-06-20T06:50:33.817Z,100814.06
2023-06-20T06:53:00.769Z,100813.38
2023-06-20T06:55:27.872Z,100837.31
2023-06-20T06:57:55.245Z,100835.47
2023-06-20T07:00:22.634Z,100846.19
2023-06-20T07:02:49.662Z,100847.56
2023-06-20T07:05:16.743Z,100840.19
2023-06-20T07:07:46.440Z,100832.38
2023-06-20T07:10:15.021Z,100853.50
2023-06-20T07:12:41.998Z,100829.16
2023-06-20T07:15:09.259Z,100844.09
2023-06-20T07:17:39.054Z,100804.00
2023-06-20T07:20:10.644Z,100844.09
2023-06-20T07:22:38.984Z,100838.06
2023-06-20T07:25:08.919Z,100827.75
2023-06-20T07:27:35.960Z,100824.81
2023-06-20T07:30:02.990Z,100832.47
2023-06-20T07:32:29.989Z,100819.22
2023-06-20T07:34:58.002Z,100814.72
2023-06-20T07:37:25.023Z,100808.88
2023-06-20T07:39:52.029Z,100807.78
2023-06-20T07:42:19.131Z,100816.09
2023-06-20T07:44:46.192Z,100802.34
2023-06-20T07:47:14.414Z,100790.22
2023-06-20T07:49:41.652Z,100803.41
2023-06-20T07:52:10.567Z,100793.13
2023-06-20T07:54:37.540Z,100796.06
2023-06-20T07:57:04.640Z,100775.06
2023-06-20T07:59:31.651Z,100799.88
2023-06-20T08:01:58.616Z,100780.94
2023-06-20T08:04:25.910Z,100789.88
2023-06-20T08:06:53.093Z,100787.13
2023-06-20T08:09:20.110Z,100790.06
2023-06-20T08:11:47.097Z,100777.78
2023-06-20T08:14:14.128Z,100801.16
2023-06-20T08:16:41.090Z,100788.66
2023-06-20T08:19:08.147Z,100788.84
2023-06-20T08:21:35.119Z,100794.75
2023-06-20T08:24:02.053Z,100788.81
2023-06-20T08:26:29.056Z,100788.91
2023-06-20T08:28:55.994Z,100779.81
2023-06-20T08:31:23.126Z,100784.41
2023-06-20T08:33:50.215Z,100785.78
2023-06-20T08:36:17.235Z,100770.16
2023-06-20T08:38:44.184Z,100782.06
2023-06-20T08:41:11.498Z,100791.59
2023-06-20T08:43:38.600Z,100793.81
2023-06-20T08:46:05.720Z,100776.84
2023-06-20T08:48:32.951Z,100775.09
2023-06-20T08:50:59.974Z,100756.81
2023-06-20T08:53:27.642Z,100768.47
2023-06-20T08:55:54.880Z,100774.22
2023-06-20T08:58:23.443Z,100761.00
2023-06-20T09:00:50.698Z,100777.31
2023-06-20T09:03:18.071Z,100766.41
2023-06-20T09:05:48.084Z,100771.53
2023-06-20T09:08:16.788Z,100765.03
2023-06-20T09:10:46.234Z,100766.66
2023-06-20T09:13:16.934Z,100765.28
2023-06-20T09:15:43.975Z,100741.59
2023-06-20T09:18:15.264Z,100763.81
2023-06-20T09:20:44.532Z,100769.06
2023-06-20T09:23:11.899Z,100781.75
2023-06-20T09:25:40.928Z,100777.28
2023-06-20T09:28:15.135Z,100778.25
2023-06-20T09:30:45.857Z,100772.28
2023-06-20T09:33:15.150Z,100770.41
2023-06-20T09:35:42.391Z,100765.88
2023-06-20T09:38:10.047Z,100775.50
2023-06-20T09:40:45.945Z,100748.00
2023-06-20T09:43:13.208Z,100760.94
2023-06-20T09:45:40.225Z,100764.50
2023-06-20T09:48:10.150Z,100737.28
2023-06-20T09:50:39.941Z,100756.44
2023-06-20T09:53:23.574Z,100748.97
2023-06-20T09:55:51.496Z,100731.53
2023-06-20T09:58:20.304Z,100706.63
2023-06-20T10:00:47.287Z,100728.88
2023-06-20T10:03:14.571Z,100707.28
2023-06-20T10:05:42.698Z,100734.53
2023-06-20T10:08:10.000Z,100737.84
2023-06-20T10:10:36.979Z,100747.00
2023-06-20T10:13:04.806Z,100746.16
2023-06-20T10:15:31.884Z,100748.47
2023-06-20T10:17:58.928Z,100730.97
2023-06-20T10:20:34.975Z,100747.56
2023-06-20T10:23:06.489Z,100752.53
2023-06-20T10:25:35.026Z,100745.66
2023-06-20T10:28:06.459Z,100745.25
2023-06-20T10:30:51.383Z,100736.09
2023-06-20T10:33:40.642Z,100706.59
2023-06-20T10:36:11.139Z,100721.28
2023-06-20T10:38:52.243Z,100736.31
2023-06-20T10:41:23.071Z,100735.56
2023-06-20T10:43:57.601Z,100732.50
2023-06-20T10:46:37.347Z,100747.19
2023-06-20T10:49:05.494Z,100713.47
2023-06-20T10:51:43.280Z,100727.09
2023-06-20T10:54:11.302Z,100722.13
2023-06-20T10:56:38.269Z,100697.31
2023-06-20T10:59:15.775Z,100714.50
2023-06-20T11:01:43.099Z,100708.34
2023-06-20T11:04:13.787Z,100712.41
2023-06-20T11:06:41.810Z,100721.13
2023-06-20T11:09:22.504Z,100721.72
2023-06-20T11:11:49.978Z,100712.59
2023-06-20T11:14:21.716Z,100723.34
2023-06-20T11:16:51.072Z,100711.47
2023-06-20T11:21:52.837Z,100716.53
2023-06-20T11:24:21.956Z,100722.75
2023-06-20T11:26:48.910Z,100714.34
2023-06-20T11:29:15.904Z,100715.09
2023-06-20T11:31:43.813Z,100709.78
2023-06-20T11:34:13.556Z,100702.81
2023-06-20T11:36:41.916Z,100689.78
2023-06-20T11:39:12.522Z,100671.41
2023-06-20T11:41:39.626Z,100684.94
2023-06-20T11:44:24.097Z,100676.56
2023-06-20T11:46:51.489Z,100662.31
2023-06-20T11:49:34.847Z,100673.13
2023-06-20T11:52:02.246Z,100674.28
2023-06-20T11:54:29.298Z,100662.56
2023-06-20T11:56:56.619Z,100670.00
2023-06-20T11:59:25.168Z,100657.41
2023-06-20T12:01:53.228Z,100685.97
2023-06-20T12:04:22.072Z,100659.00
2023-06-20T12:06:54.396Z,100675.00
2023-06-20T12:09:25.045Z,100668.38
2023-06-20T12:11:56.144Z,100663.31
2023-06-20T12:14:25.979Z,100673.22
2023-06-20T12:16:53.691Z,100665.41
2023-06-20T12:19:21.134Z,100655.38
2023-06-20T12:21:48.868Z,100637.38
2023-06-20T12:24:17.500Z,100671.13
2023-06-20T12:26:48.339Z,100660.59
2023-06-20T12:29:15.636Z,100658.00
2023-06-20T12:31:42.586Z,100640.16
2023-06-20T12:34:09.989Z,100619.50
2023-06-20T12:36:37.137Z,100635.97
2023-06-20T12:39:04.953Z,100629.88
2023-06-20T12:41:36.022Z,100635.81
2023-06-20T12:44:04.100Z,100628.81
2023-06-20T12:46:31.644Z,100614.94
2023-06-20T12:48:59.485Z,100625.47
2023-06-20T12:51:26.507Z,100603.97
2023-06-20T12:53:57.471Z,100595.50
2023-06-20T12:56:24.598Z,100622.69
2023-06-20T12:58:51.673Z,100623.88
2023-06-20T13:01:21.544Z,100599.88
2023-06-20T13:03:48.812Z,100609.16
2023-06-20T13:06:19.368Z,100611.56
2023-06-20T13:08:46.510Z,100595.88
2023-06-20T13:11:15.415Z,100609.16
2023-06-20T13:13:42.527Z,100616.25
2023-06-20T13:16:09.600Z,100614.44
2023-06-20T13:18:36.637Z,100608.72
2023-06-20T13:21:03.743Z,100607.19
2023-06-20T13:23:30.833Z,100607.31
2023-06-20T13:25:57.922Z,100606.97
2023-06-20T13:28:24.875Z,100603.84
2023-06-20T13:30:51.979Z,100614.06
2023-06-20T13:33:18.966Z,100621.91
2023-06-20T13:35:45.910Z,100613.72
2023-06-20T13:38:14.403Z,100617.66
2023-06-20T13:40:41.369Z,100606.59
2023-06-20T13:43:08.346Z,100582.25
2023-06-20T13:45:35.566Z,100593.06
2023-06-20T13:48:05.262Z,100591.13
2023-06-20T13:50:32.350Z,100583.00
2023-06-20T13:52:59.276Z,100571.75
2023-06-20T13:55:26.237Z,100578.66
2023-06-20T13:57:53.507Z,100568.28
2023-06-20T14:00:20.419Z,100555.34
2023-06-20T14:02:48.095Z,100575.09
2023-06-20T14:05:17.497Z,100575.31
2023-06-20T14:07:47.598Z,100564.03
2023-06-20T14:10:16.618Z,100541.84
2023-06-20T14:12:43.508Z,100550.91
2023-06-20T14:15:10.804Z,100543.63
2023-06-20T14:17:38.200Z,100542.03
2023-06-20T14:20:09.013Z,100535.38
2023-06-20T14:22:36.425Z,100517.66
2023-06-20T14:25:04.196Z,100534.44
2023-06-20T14:27:31.272Z,100533.44
2023-06-20T14:30:00.945Z,100529.47
2023-06-20T14:32:28.063Z,100530.72
2023-06-20T14:34:55.010Z,100524.31
2023-06-20T14:37:22.146Z,100518.56
2023-06-20T14:39:49.181Z,100525.31
2023-06-20T14:42:17.765Z,100501.63
2023-06-20T14:44:46.817Z,100525.28
2023-06-20T14:47:13.867Z,100519.44
2023-06-20T14:49:43.644Z,100498.66
2023-06-20T14:52:11.995Z,100516.19
2023-06-20T14:54:39.162Z,100516.19
2023-06-20T14:57:06.800Z,100519.84
2023-06-20T14:59:33.781Z,100499.63
2023-06-20T15:02:00.954Z,100520.59
2023-06-20T15:04:28.410Z,100519.34
2023-06-20T15:06:55.330Z,100516.81
2023-06-20T15:09:22.816Z,100522.97
2023-06-20T15:11:49.878Z,100513.91
2023-06-20T15:14:17.062Z,100509.44
2023-06-20T15:16:44.126Z,100509.75
2023-06-20T15:19:11.876Z,100507.66
2023-06-20T15:21:38.789Z,100503.91
2023-06-20T15:24:05.838Z,100505.97
2023-06-20T15:26:32.813Z,100503.44
2023-06-20T15:28:59.823Z,100491.47
2023-06-20T15:31:26.825Z,100500.03
2023-06-20T15:33:53.792Z,100501.41
2023-06-20T15:36:21.646Z,100508.03
2023-06-20T15:38:48.639Z,100510.31
2023-06-20T15:41:15.972Z,100505.81
2023-06-20T15:43:42.954Z,100500.56
2023-06-20T15:46:10.077Z,100492.38
2023-06-20T15:48:56.463Z,100487.09
2023-06-20T15:51:25.313Z,100481.25
2023-06-20T15:53:52.748Z,100502.31
2023-06-20T15:56:20.780Z,100492.22
2023-06-20T15:58:47.852Z,100493.31
2023-06-20T16:01:15.095Z,100467.09
2023-06-20T16:03:42.599Z,100474.50
2023-06-20T16:06:09.673Z,100481.25
2023-06-20T16:08:36.697Z,100480.41
2023-06-20T16:11:03.775Z,100486.38
2023-06-20T16:13:31.654Z,100467.34
2023-06-20T16:15:58.685Z,100472.91
2023-06-20T16:18:25.695Z,100448.97
2023-06-20T16:20:52.659Z,100463.19
2023-06-20T16:23:20.393Z,100460.91
2023-06-20T16:25:47.502Z,100436.47
2023-06-20T16:28:14.545Z,100456.28
2023-06-20T16:30:41.843Z,100455.78
2023-06-20T16:33:10.825Z,100429.84
2023-06-20T16:35:38.020Z,100450.06
2023-06-20T16:38:04.998Z,100453.41
2023-06-20T16:40:31.999Z,100435.03
2023-06-20T16:42:59.042Z,100448.53
2023-06-20T16:45:26.044Z,100410.03
2023-06-20T16:47:53.248Z,100423.00
2023-06-20T16:50:20.388Z,100426.03
2023-06-20T16:52:47.485Z,100421.22
2023-06-20T16:55:14.652Z,100427.88
2023-06-20T16:57:41.628Z,100430.50
2023-06-20T17:00:09.540Z,100413.72
2023-06-20T17:02:37.033Z,100401.69
2023-06-20T17:05:04.433Z,100383.22
2023-06-20T17:07:31.343Z,100402.03
2023-06-20T17:09:58.338Z,100410.81
2023-06-20T17:12:25.298Z,100398.06
2023-06-20T17:14:52.364Z,100410.22
2023-06-20T17:17:19.336Z,100406.34
2023-06-20T17:19:46.266Z,100378.06
2023-06-20T17:22:13.301Z,100405.38
2023-06-20T17:24:43.024Z,100393.56
2023-06-20T17:27:13.742Z,100392.66
2023-06-20T17:29:42.122Z,100366.31
2023-06-20T17:32:10.637Z,100394.97
2023-06-20T17:34:37.773Z,100382.56
2023-06-20T17:37:06.810Z,100392.03
2023-06-20T17:39:33.885Z,100390.84
2023-06-20T17:42:00.896Z,100390.88
2023-06-20T17:44:30.758Z,100395.72
2023-06-20T17:46:57.872Z,100392.72
2023-06-20T17:49:25.256Z,100399.84
2023-06-20T17:51:52.284Z,100394.16
2023-06-20T17:54:19.370Z,100396.84
2023-06-20T17:56:49.213Z,100398.41
2023-06-20T17:59:16.710Z,100371.03
2023-06-20T18:01:43.844Z,100398.03
2023-06-20T18:04:12.779Z,100373.91
2023-06-20T18:06:40.743Z,100382.84
2023-06-20T18:09:08.462Z,100378.38
2023-06-20T18:11:35.657Z,100384.41
2023-06-20T18:14:02.704Z,100391.03
2023-06-20T18:16:29.756Z,100389.72
2023-06-20T18:18:56.826Z,100372.16
2023-06-20T18:21:23.816Z,100381.66
2023-06-20T18:23:50.864Z,100369.72
2023-06-20T18:26:18.003Z,100375.03
2023-06-20T18:28:44.949Z,100367.94
2023-06-20T18:31:11.992Z,100366.84
2023-06-20T18:33:39.883Z,100356.94
2023-06-20T18:36:08.194Z,100368.16
2023-06-20T18:38:35.401Z,100362.97
2023-06-20T18:41:02.401Z,100349.59
2023-06-20T18:43:29.344Z,100355.38
2023-06-20T18:45:57.098Z,100351.13
2023-06-20T18:48:24.114Z,100351.38
2023-06-20T18:51:00.049Z,100361.63
2023-06-20T18:53:27.285Z,100363.00
2023-06-20T18:55:54.293Z,100336.59
2023-06-20T18:58:21.285Z,100361.78
2023-06-20T19:00:49.465Z,100370.09
2023-06-20T19:03:18.819Z,100373.34
2023-06-20T19:05:46.361Z,100376.91
2023-06-20T19:08:13.371Z,100377.97
2023-06-20T19:10:40.423Z,100376.16
2023-06-20T19:13:07.493Z,100374.03
2023-06-20T19:15:34.451Z,100385.16
2023-06-20T19:18:01.405Z,100389.66
2023-06-20T19:20:28.705Z,100358.09
2023-06-20T19:22:58.512Z,100357.41
2023-06-20T19:25:25.576Z,100380.22
2023-06-20T19:27:52.731Z,100392.81
2023-06-20T19:30:20.562Z,100383.63
2023-06-20T19:32:48.760Z,100385.13
2023-06-20T19:35:16.849Z,100336.78
2023-06-20T19:37:47.068Z,100372.09
2023-06-20T19:40:15.228Z,100380.41
2023-06-20T19:42:42.251Z,100375.63
2023-06-20T19:45:09.525Z,100387.91
2023-06-20T19:47:36.494Z,100390.22
2023-06-20T19:50:03.794Z,100382.63
2023-06-20T19:52:30.820Z,100369.66
2023-06-20T19:54:57.883Z,100383.63
2023-06-20T19:57:26.864Z,100384.38
2023-06-20T19:59:54.021Z,100352.56
2023-06-20T20:02:25.593Z,100384.63
2023-06-20T20:04:52.797Z,100373.19
2023-06-20T20:07:19.882Z,100367.03
2023-06-20T20:09:49.595Z,100371.78
2023-06-20T20:12:16.639Z,100371.16
2023-06-20T20:14:43.651Z,100358.47
2023-06-20T20:17:10.931Z,100383.22
2023-06-20T20:19:38.045Z,100366.84
2023-06-20T20:22:05.503Z,100337.91
2023-06-20T20:24:32.541Z,100353.91
2023-06-20T20:26:59.635Z,100362.81
2023-06-20T20:29:26.692Z,100358.13
2023-06-20T20:31:53.809Z,100362.53
2023-06-20T20:34:21.083Z,100340.72
2023-06-20T20:36:48.184Z,100369.75
2023-06-20T20:39:15.521Z,100381.00
2023-06-20T20:41:43.052Z,100381.00
2023-06-20T20:44:10.558Z,100379.28
2023-06-20T20:46:37.612Z,100364.25
2023-06-20T20:49:04.884Z,100387.13
2023-06-20T20:51:33.610Z,100455.84
2023-06-20T20:54:01.001Z,100446.94
2023-06-20T20:56:27.936Z,100433.88
2023-06-20T20:58:55.416Z,100457.44
2023-06-20T21:01:22.667Z,100469.50
2023-06-20T21:03:50.556Z,100415.25
2023-06-20T21:06:17.872Z,100481.81
2023-06-20T21:08:45.044Z,100475.84
2023-06-20T21:11:12.124Z,100471.19
2023-06-20T21:13:39.115Z,100474.72
2023-06-20T21:16:06.095Z,100487.16
2023-06-20T21:18:33.213Z,100496.03
2023-06-20T21:21:00.349Z,100499.44
2023-06-20T21:23:27.321Z,100492.69
2023-06-20T21:25:54.405Z,100484.97
2023-06-20T21:28:22.866Z,100487.09
2023-06-20T21:30:51.090Z,100457.53
2023-06-20T21:33:18.011Z,100500.25
2023-06-20T21:35:44.983Z,100519.66
2023-06-20T21:38:11.975Z,100527.94
2023-06-20T21:40:38.908Z,100517.97
2023-06-20T21:43:07.912Z,100511.72
2023-06-20T21:45:34.884Z,100516.59
2023-06-20T21:48:01.935Z,100516.47
2023-06-20T21:50:29.968Z,100514.63
2023-06-20T21:52:57.022Z,100521.47
2023-06-20T21:55:23.932Z,100520.84
2023-06-20T21:57:50.880Z,100513.56
2023-06-20T22:00:18.067Z,100512.09
2023-06-20T22:02:45.100Z,100523.59
2023-06-20T22:05:12.120Z,100521.97
2023-06-20T22:07:39.062Z,100553.28
2023-06-20T22:10:06.996Z,100554.91
2023-06-20T22:12:35.006Z,100538.97
2023-06-20T22:15:03.095Z,100545.75
2023-06-20T22:17:31.006Z,100557.81
2023-06-20T22:19:58.009Z,100562.84
2023-06-20T22:22:24.906Z,100558.22
2023-06-20T22:24:51.852Z,100563.25
2023-06-20T22:27:19.004Z,100580.41
2023-06-20T22:29:45.972Z,100591.63
2023-06-20T22:32:12.986Z,100576.53
2023-06-20T22:34:40.004Z,100583.75
2023-06-20T22:37:07.082Z,100588.66
2023-06-20T22:39:34.046Z,100583.31
2023-06-20T22:42:01.108Z,100595.78
2023-06-20T22:44:28.398Z,100590.13
2023-06-20T22:46:58.192Z,100576.41
2023-06-20T22:49:25.881Z,100580.41
2023-06-20T22:51:53.400Z,100560.44
2023-06-20T22:54:22.977Z,100586.63
2023-06-20T22:56:50.465Z,100563.28
2023-06-20T22:59:19.080Z,100576.94
2023-06-20T23:01:47.599Z,100579.28
2023-06-20T23:04:14.697Z,100576.81
2023-06-20T23:06:41.651Z,100526.25
2023-06-20T23:09:08.628Z,100562.84
2023-06-20T23:11:36.453Z,100555.34
2023-06-20T23:14:04.342Z,100562.59
2023-06-20T23:16:32.305Z,100552.41
2023-06-20T23:18:59.367Z,100511.72
2023-06-20T23:21:26.447Z,100538.00
2023-06-20T23:23:53.591Z,100546.81
2023-06-20T23:26:22.275Z,100545.09
2023-06-20T23:28:53.547Z,100530.97
2023-06-20T23:31:25.366Z,100548.53
2023-06-20T23:33:52.404Z,100538.09
2023-06-20T23:36:19.420Z,100543.88
2023-06-20T23:38:46.377Z,100539.06
2023-06-20T23:41:13.355Z,100547.13
2023-06-20T23:43:44.645Z,100530.88
2023-06-20T23:46:13.018Z,100549.19
2023-06-20T23:48:40.008Z,100533.78
2023-06-20T23:51:06.966Z,100536.25
2023-06-20T23:53:34.138Z,100541.22
2023-06-20T23:56:01.180Z,100547.44
2023-06-20T23:58:32.517Z,100538.38
